createdAt,value
2019-01-19T00:00:42.356Z,-2.00
2019-01-19T00:03:22.414Z,-2.00
2019-01-19T00:05:59.649Z,-2.00
2019-01-19T00:08:31.280Z,-2.00
2019-01-19T00:11:05.660Z,-2.00
2019-01-19T00:13:55.084Z,-1.90
2019-01-19T00:16:43.138Z,-2.00
2019-01-19T00:19:14.658Z,-1.90
2019-01-19T00:22:02.743Z,-2.00
2019-01-19T00:24:34.249Z,-2.00
2019-01-19T00:27:23.524Z,-2.00
2019-01-19T00:30:09.785Z,-2.00
2019-01-19T00:32:59.336Z,-2.10
2019-01-19T00:35:45.760Z,-2.00
2019-01-19T00:38:17.275Z,-2.00
2019-01-19T00:41:11.780Z,-2.00
2019-01-19T00:43:41.185Z,-2.10
2019-01-19T00:46:31.004Z,-2.10
2019-01-19T00:49:08.532Z,-2.10
2019-01-19T00:51:48.754Z,-2.10
2019-01-19T00:54:20.252Z,-2.10
2019-01-19T00:57:00.596Z,-2.10
2019-01-19T00:59:31.203Z,-2.10
2019-01-19T01:02:17.771Z,-2.10
2019-01-19T01:04:49.263Z,-2.10
2019-01-19T01:07:41.288Z,-2.10
2019-01-19T01:10:33.683Z,-2.10
2019-01-19T01:13:07.940Z,-2.10
2019-01-19T01:15:56.112Z,-2.10
2019-01-19T01:18:39.623Z,-2.30
2019-01-19T01:21:27.716Z,-2.30
2019-01-19T01:24:18.448Z,-2.30
2019-01-19T01:26:58.911Z,-2.20
2019-01-19T01:29:48.239Z,-2.20
2019-01-19T01:32:34.873Z,-2.30
2019-01-19T01:35:35.021Z,-2.30
2019-01-19T01:38:24.347Z,-2.30
2019-01-19T01:41:01.437Z,-2.40
2019-01-19T01:43:35.522Z,-2.40
2019-01-19T01:46:21.924Z,-2.40
2019-01-19T01:49:05.417Z,-2.40
2019-01-19T01:51:42.517Z,-2.30
2019-01-19T01:54:23.243Z,-2.40
2019-01-19T01:56:51.670Z,-2.40
2019-01-19T01:59:38.006Z,-2.40
2019-01-19T02:02:16.564Z,-2.50
2019-01-19T02:05:06.140Z,-2.50
2019-01-19T02:07:54.493Z,-2.50
2019-01-19T02:10:32.418Z,-2.60
2019-01-19T02:13:12.750Z,-2.70
2019-01-19T02:16:05.417Z,-2.70
2019-01-19T02:18:39.659Z,-2.80
2019-01-19T02:21:38.335Z,-2.70
2019-01-19T02:24:30.687Z,-2.80
2019-01-19T02:27:04.847Z,-2.90
2019-01-19T02:29:42.087Z,-2.90
2019-01-19T02:32:25.472Z,-2.90
2019-01-19T02:35:13.603Z,-3.00
2019-01-19T02:37:54.006Z,-2.90
2019-01-19T02:40:40.287Z,-2.90
2019-01-19T02:43:14.455Z,-2.90
2019-01-19T02:46:00.710Z,-2.90
2019-01-19T02:48:48.781Z,-2.90
2019-01-19T02:51:23.342Z,-2.90
2019-01-19T02:54:06.980Z,-3.00
2019-01-19T02:56:38.470Z,-3.00
2019-01-19T02:59:13.490Z,-3.00
2019-01-19T03:01:54.160Z,-3.00
2019-01-19T03:04:34.367Z,-3.10
2019-01-19T03:07:22.405Z,-3.10
2019-01-19T03:10:05.982Z,-3.10
2019-01-19T03:13:09.065Z,-3.10
2019-01-19T03:16:14.808Z,-3.10
2019-01-19T03:18:58.175Z,-3.10
2019-01-19T03:22:01.396Z,-3.10
2019-01-19T03:24:35.811Z,-3.20
2019-01-19T03:27:23.606Z,-3.10
2019-01-19T03:30:05.065Z,-3.10
2019-01-19T03:32:39.152Z,-3.20
2019-01-19T03:35:13.477Z,-3.20
2019-01-19T03:37:50.896Z,-3.30
2019-01-19T03:40:34.428Z,-3.40
2019-01-19T03:43:17.800Z,-3.40
2019-01-19T03:46:01.217Z,-3.40
2019-01-19T03:48:32.731Z,-3.40
2019-01-19T03:51:19.278Z,-3.30
2019-01-19T03:53:56.947Z,-3.30
2019-01-19T03:56:37.382Z,-3.40
2019-01-19T03:59:25.481Z,-3.40
2019-01-19T04:02:05.671Z,-3.30
2019-01-19T04:04:56.706Z,-3.30
2019-01-19T04:07:43.071Z,-3.30
2019-01-19T04:10:29.666Z,-3.30
2019-01-19T04:13:20.503Z,-3.30
2019-01-19T04:16:06.862Z,-3.30
2019-01-19T04:18:41.508Z,-3.30
2019-01-19T04:21:27.913Z,-3.20
2019-01-19T04:23:59.396Z,-3.20
2019-01-19T04:26:30.740Z,-3.20
2019-01-19T04:28:59.221Z,-3.20
2019-01-19T04:31:27.648Z,-3.10
2019-01-19T04:33:56.332Z,-3.10
2019-01-19T04:36:24.944Z,-3.20
2019-01-19T04:38:53.450Z,-3.30
2019-01-19T04:41:21.881Z,-3.40
2019-01-19T04:43:50.295Z,-3.40
2019-01-19T04:46:18.721Z,-3.40
2019-01-19T04:48:47.508Z,-3.50
2019-01-19T04:51:15.947Z,-3.50
2019-01-19T04:53:44.395Z,-3.50
2019-01-19T04:56:12.888Z,-3.50
2019-01-19T04:58:41.316Z,-3.50
2019-01-19T05:01:09.801Z,-3.50
2019-01-19T05:03:38.204Z,-3.50
2019-01-19T05:06:11.948Z,-3.50
2019-01-19T05:08:36.771Z,-3.40
2019-01-19T05:11:05.193Z,-3.40
2019-01-19T05:13:37.287Z,-3.40
2019-01-19T05:16:05.732Z,-3.40
2019-01-19T05:18:34.230Z,-3.40
2019-01-19T05:21:02.764Z,-3.60
2019-01-19T05:23:31.340Z,-3.50
2019-01-19T05:25:59.796Z,-3.50
2019-01-19T05:28:28.217Z,-3.60
2019-01-19T05:30:56.702Z,-3.60
2019-01-19T05:33:25.122Z,-3.60
2019-01-19T05:35:53.557Z,-3.60
2019-01-19T05:38:22.001Z,-3.60
2019-01-19T05:40:50.429Z,-3.60
2019-01-19T05:43:18.916Z,-3.60
2019-01-19T05:45:47.354Z,-3.60
2019-01-19T05:48:15.789Z,-3.60
2019-01-19T05:50:44.198Z,-3.70
2019-01-19T05:53:12.626Z,-3.70
2019-01-19T05:55:41.051Z,-3.80
2019-01-19T05:58:09.481Z,-3.80
2019-01-19T06:00:37.888Z,-3.90
2019-01-19T06:03:06.390Z,-3.80
2019-01-19T06:05:34.895Z,-3.80
2019-01-19T06:08:03.595Z,-3.90
2019-01-19T06:10:32.056Z,-3.90
2019-01-19T06:13:00.489Z,-3.90
2019-01-19T06:15:28.902Z,-3.90
2019-01-19T06:17:57.404Z,-3.90
2019-01-19T06:20:25.816Z,-3.90
2019-01-19T06:22:54.258Z,-4.00
2019-01-19T06:25:22.697Z,-4.00
2019-01-19T06:27:51.149Z,-4.00
2019-01-19T06:30:21.497Z,-4.10
2019-01-19T06:32:50.064Z,-4.20
2019-01-19T06:35:18.568Z,-4.20
2019-01-19T06:37:47.135Z,-4.20
2019-01-19T06:40:19.136Z,-4.20
2019-01-19T06:42:47.623Z,-4.20
2019-01-19T06:45:19.125Z,-4.30
2019-01-19T06:47:47.639Z,-4.30
2019-01-19T06:50:17.189Z,-4.40
2019-01-19T06:52:45.627Z,-4.40
2019-01-19T06:55:19.862Z,-4.30
2019-01-19T06:57:48.308Z,-4.20
2019-01-19T07:00:18.256Z,-4.20
2019-01-19T07:02:47.037Z,-4.20
2019-01-19T07:05:15.619Z,-4.20
2019-01-19T07:07:44.042Z,-4.10
2019-01-19T07:10:20.610Z,-4.00
2019-01-19T07:12:49.055Z,-4.00
2019-01-19T07:15:17.538Z,-3.90
2019-01-19T07:17:45.966Z,-3.90
2019-01-19T07:20:17.109Z,-3.90
2019-01-19T07:22:45.533Z,-3.80
2019-01-19T07:25:14.101Z,-3.70
2019-01-19T07:27:42.524Z,-3.70
2019-01-19T07:30:16.287Z,-3.60
2019-01-19T07:32:46.358Z,-3.60
2019-01-19T07:35:15.531Z,-3.40
2019-01-19T07:37:44.031Z,-3.40
2019-01-19T07:40:18.153Z,-3.40
2019-01-19T07:42:48.871Z,-3.40
2019-01-19T07:45:17.353Z,-3.40
2019-01-19T07:47:45.776Z,-3.40
2019-01-19T07:50:16.707Z,-3.30
2019-01-19T07:52:45.483Z,-3.20
2019-01-19T07:55:16.448Z,-3.20
2019-01-19T07:57:44.921Z,-3.20
2019-01-19T08:00:19.342Z,-3.10
2019-01-19T08:02:47.859Z,-3.00
2019-01-19T08:05:16.337Z,-2.90
2019-01-19T08:07:44.825Z,-2.90
2019-01-19T08:10:17.966Z,-2.90
2019-01-19T08:12:46.564Z,-2.90
2019-01-19T08:15:20.442Z,-2.80
2019-01-19T08:17:48.941Z,-2.70
2019-01-19T08:20:17.385Z,-2.60
2019-01-19T08:22:45.913Z,-2.60
2019-01-19T08:25:14.456Z,-2.50
2019-01-19T08:27:42.888Z,-2.50
2019-01-19T08:30:16.868Z,-2.50
2019-01-19T08:32:45.366Z,-2.50
2019-01-19T08:35:15.446Z,-2.40
2019-01-19T08:37:43.890Z,-2.40
2019-01-19T08:40:21.535Z,-2.30
2019-01-19T08:42:51.682Z,-2.30
2019-01-19T08:45:20.373Z,-2.30
2019-01-19T08:47:48.807Z,-2.20
2019-01-19T08:50:17.287Z,-2.10
2019-01-19T08:52:45.834Z,-2.00
2019-01-19T08:55:14.255Z,-1.80
2019-01-19T08:57:44.704Z,-1.70
2019-01-19T09:00:17.704Z,-1.60
2019-01-19T09:02:46.155Z,-1.60
2019-01-19T09:05:14.669Z,-1.50
2019-01-19T09:07:43.191Z,-1.30
2019-01-19T09:10:14.316Z,-1.20
2019-01-19T09:12:42.838Z,-1.10
2019-01-19T09:15:14.479Z,-1.10
2019-01-19T09:17:42.983Z,-0.80
2019-01-19T09:20:14.174Z,-0.80
2019-01-19T09:22:42.703Z,-0.60
2019-01-19T09:25:13.960Z,-0.40
2019-01-19T09:27:42.532Z,-0.20
2019-01-19T09:30:14.023Z,0.00
2019-01-19T09:32:44.017Z,0.10
2019-01-19T09:35:12.522Z,0.30
2019-01-19T09:37:41.133Z,0.50
2019-01-19T09:40:13.109Z,0.60
2019-01-19T09:42:41.589Z,0.70
2019-01-19T09:45:12.775Z,0.80
2019-01-19T09:47:41.246Z,0.90
2019-01-19T09:50:12.815Z,0.80
2019-01-19T09:53:04.137Z,0.80
2019-01-19T09:56:07.874Z,1.00
2019-01-19T09:58:36.296Z,1.10
2019-01-19T10:01:05.699Z,1.30
2019-01-19T10:03:34.147Z,1.50
2019-01-19T10:06:02.566Z,1.50
2019-01-19T10:08:31.008Z,1.60
2019-01-19T10:10:59.768Z,1.70
2019-01-19T10:13:28.211Z,1.80
2019-01-19T10:15:56.631Z,1.80
2019-01-19T10:18:25.041Z,1.80
2019-01-19T10:20:53.533Z,1.90
2019-01-19T10:23:21.972Z,1.90
2019-01-19T10:25:50.393Z,2.10
2019-01-19T10:28:18.801Z,2.20
2019-01-19T10:30:47.293Z,2.30
2019-01-19T10:33:15.706Z,2.40
2019-01-19T10:35:44.152Z,2.50
2019-01-19T10:38:12.559Z,2.60
2019-01-19T10:40:43.029Z,2.50
2019-01-19T10:43:11.433Z,2.50
2019-01-19T10:45:39.900Z,2.50
2019-01-19T10:48:08.310Z,2.20
2019-01-19T10:50:36.748Z,2.10
2019-01-19T10:53:05.237Z,2.20
2019-01-19T10:55:33.747Z,2.20
2019-01-19T10:58:02.151Z,2.20
2019-01-19T11:00:33.099Z,2.20
2019-01-19T11:03:01.669Z,2.00
2019-01-19T11:05:30.103Z,2.00
2019-01-19T11:08:03.639Z,1.70
2019-01-19T11:10:33.337Z,1.60
2019-01-19T11:13:01.744Z,1.50
2019-01-19T11:15:30.243Z,1.70
2019-01-19T11:17:58.653Z,1.80
2019-01-19T11:20:31.464Z,1.90
2019-01-19T11:23:01.110Z,1.90
2019-01-19T11:25:30.295Z,1.90
2019-01-19T11:27:58.716Z,1.90
2019-01-19T11:30:32.239Z,2.00
2019-01-19T11:33:00.651Z,1.90
2019-01-19T11:35:29.141Z,1.90
2019-01-19T11:37:57.566Z,1.80
2019-01-19T11:40:32.173Z,1.80
2019-01-19T11:43:00.594Z,1.70
2019-01-19T11:45:29.096Z,1.70
2019-01-19T11:47:57.505Z,1.70
2019-01-19T11:50:25.941Z,1.70
2019-01-19T11:52:54.348Z,1.70
2019-01-19T11:55:22.787Z,1.60
2019-01-19T11:57:56.663Z,1.70
2019-01-19T12:00:30.383Z,1.80
2019-01-19T12:02:58.789Z,1.80
2019-01-19T12:05:27.348Z,1.80
2019-01-19T12:07:55.834Z,1.80
2019-01-19T12:10:29.460Z,1.80
2019-01-19T12:12:57.876Z,1.70
2019-01-19T12:15:26.556Z,1.60
2019-01-19T12:17:55.800Z,1.60
2019-01-19T12:20:29.668Z,1.50
2019-01-19T12:22:58.222Z,1.50
2019-01-19T12:25:26.720Z,1.40
2019-01-19T12:27:55.192Z,1.50
2019-01-19T12:30:32.017Z,1.50
2019-01-19T12:33:00.497Z,1.60
2019-01-19T12:35:29.171Z,1.50
2019-01-19T12:37:58.838Z,1.50
2019-01-19T12:40:29.110Z,1.60
2019-01-19T12:43:03.084Z,1.60
2019-01-19T12:45:34.753Z,1.50
2019-01-19T12:48:03.178Z,1.40
2019-01-19T12:50:31.599Z,1.40
2019-01-19T12:53:00.023Z,1.40
2019-01-19T12:55:28.446Z,1.50
2019-01-19T12:57:56.860Z,1.30
2019-01-19T13:00:27.428Z,1.20
2019-01-19T13:02:56.676Z,1.30
2019-01-19T13:05:34.168Z,1.30
2019-01-19T13:08:03.709Z,1.40
2019-01-19T13:10:38.239Z,1.50
2019-01-19T13:13:07.498Z,1.60
2019-01-19T13:15:47.698Z,1.70
2019-01-19T13:18:34.248Z,1.60
2019-01-19T13:21:26.871Z,1.60
2019-01-19T13:24:07.052Z,1.60
2019-01-19T13:27:07.239Z,1.60
2019-01-19T13:30:01.350Z,1.60
2019-01-19T13:33:08.169Z,1.70
2019-01-19T13:35:54.539Z,1.70
2019-01-19T13:38:32.091Z,1.70
2019-01-19T13:41:18.705Z,1.70
2019-01-19T13:44:05.255Z,1.70
2019-01-19T13:47:02.684Z,1.70
2019-01-19T13:49:34.192Z,1.70
2019-01-19T13:52:38.868Z,1.70
2019-01-19T13:55:27.025Z,1.70
2019-01-19T13:58:01.668Z,1.70
2019-01-19T14:01:00.396Z,1.70
2019-01-19T14:03:34.898Z,1.80
2019-01-19T14:06:14.981Z,1.70
2019-01-19T14:09:04.524Z,1.70
2019-01-19T14:11:41.592Z,1.60
2019-01-19T14:14:45.276Z,1.40
2019-01-19T14:17:46.521Z,1.30
2019-01-19T14:20:23.781Z,1.30
2019-01-19T14:23:01.120Z,1.30
2019-01-19T14:25:51.931Z,1.30
2019-01-19T14:28:39.888Z,1.30
2019-01-19T14:31:30.706Z,1.30
2019-01-19T14:34:08.215Z,1.30
2019-01-19T14:36:59.129Z,1.30
2019-01-19T14:39:30.617Z,1.30
2019-01-19T14:42:04.704Z,1.30
2019-01-19T14:45:00.519Z,1.30
2019-01-19T14:47:41.025Z,1.30
2019-01-19T14:50:24.576Z,1.40
2019-01-19T14:53:08.199Z,1.30
2019-01-19T14:55:45.559Z,1.40
2019-01-19T14:58:25.816Z,1.30
2019-01-19T15:01:18.746Z,1.30
2019-01-19T15:03:50.238Z,1.20
2019-01-19T15:06:36.721Z,1.20
2019-01-19T15:09:16.986Z,1.20
2019-01-19T15:11:54.311Z,1.10
2019-01-19T15:14:29.066Z,1.00
2019-01-19T15:17:18.681Z,1.10
2019-01-19T15:20:18.923Z,1.20
2019-01-19T15:23:08.442Z,1.20
2019-01-19T15:25:45.819Z,1.20
2019-01-19T15:28:45.369Z,1.20
2019-01-19T15:31:25.637Z,1.10
2019-01-19T15:34:09.151Z,1.00
2019-01-19T15:36:55.702Z,1.00
2019-01-19T15:39:32.928Z,1.00
2019-01-19T15:42:47.957Z,1.00
2019-01-19T15:45:22.525Z,0.90
2019-01-19T15:48:05.810Z,0.80
2019-01-19T15:50:56.603Z,0.80
2019-01-19T15:53:40.043Z,0.70
2019-01-19T15:56:34.272Z,0.70
2019-01-19T15:59:40.603Z,0.60
2019-01-19T16:02:20.884Z,0.50
2019-01-19T16:04:52.364Z,0.50
2019-01-19T16:07:35.656Z,0.40
2019-01-19T16:10:28.344Z,0.30
2019-01-19T16:13:08.379Z,0.30
2019-01-19T16:16:05.563Z,0.20
2019-01-19T16:18:52.374Z,0.10
2019-01-19T16:21:29.660Z,0.10
2019-01-19T16:24:12.600Z,0.00
2019-01-19T16:26:53.125Z,-0.10
2019-01-19T16:29:30.609Z,-0.10
2019-01-19T16:32:15.026Z,-0.20
2019-01-19T16:34:49.265Z,-0.30
2019-01-19T16:37:28.298Z,-0.20
2019-01-19T16:40:15.057Z,-0.30
2019-01-19T16:43:04.591Z,-0.40
2019-01-19T16:45:48.157Z,-0.50
2019-01-19T16:48:31.368Z,-0.50
2019-01-19T16:51:02.864Z,-0.50
2019-01-19T16:53:46.168Z,-0.70
2019-01-19T16:56:17.679Z,-0.70
2019-01-19T16:58:58.117Z,-0.60
2019-01-19T17:01:35.453Z,-0.70
2019-01-19T17:04:10.380Z,-0.70
2019-01-19T17:06:47.651Z,-0.70
2019-01-19T17:09:36.516Z,-0.60
2019-01-19T17:12:25.820Z,-0.70
2019-01-19T17:15:15.119Z,-0.70
2019-01-19T17:17:52.228Z,-0.80
2019-01-19T17:20:29.412Z,-0.80
2019-01-19T17:23:12.978Z,-0.90
2019-01-19T17:25:59.730Z,-1.00
2019-01-19T17:28:43.292Z,-1.00
2019-01-19T17:31:32.608Z,-1.00
2019-01-19T17:34:22.163Z,-1.00
2019-01-19T17:36:59.594Z,-1.00
2019-01-19T17:40:05.399Z,-1.10
2019-01-19T17:42:57.632Z,-1.10
2019-01-19T17:45:31.696Z,-1.10
2019-01-19T17:48:12.212Z,-1.20
2019-01-19T17:50:49.863Z,-1.20
2019-01-19T17:53:54.844Z,-1.20
2019-01-19T17:56:42.739Z,-1.30
2019-01-19T17:59:17.040Z,-1.40
2019-01-19T18:02:03.408Z,-1.40
2019-01-19T18:04:49.999Z,-1.40
2019-01-19T18:07:39.340Z,-1.40
2019-01-19T18:10:33.625Z,-1.40
2019-01-19T18:13:17.000Z,-1.50
2019-01-19T18:15:57.450Z,-1.50
2019-01-19T18:18:34.613Z,-1.60
2019-01-19T18:21:12.088Z,-1.80
2019-01-19T18:24:02.938Z,-1.90
2019-01-19T18:26:46.413Z,-1.90
2019-01-19T18:29:34.691Z,-1.90
2019-01-19T18:32:17.113Z,-1.90
2019-01-19T18:35:20.544Z,-1.90
2019-01-19T18:37:55.001Z,-2.00
2019-01-19T18:40:44.144Z,-2.00
2019-01-19T18:43:27.524Z,-2.10
2019-01-19T18:46:17.457Z,-2.20
2019-01-19T18:49:04.123Z,-2.20
2019-01-19T18:51:35.823Z,-2.30
2019-01-19T18:54:16.257Z,-2.40
2019-01-19T18:56:59.132Z,-2.40
2019-01-19T18:59:48.740Z,-2.50
2019-01-19T19:02:25.780Z,-2.60
2019-01-19T19:05:14.176Z,-2.70
2019-01-19T19:08:02.481Z,-2.70
2019-01-19T19:10:33.999Z,-2.80
2019-01-19T19:13:11.411Z,-2.90
2019-01-19T19:16:02.225Z,-2.90
2019-01-19T19:18:48.922Z,-3.00
2019-01-19T19:21:20.428Z,-3.00
2019-01-19T19:24:09.524Z,-3.00
2019-01-19T19:26:43.776Z,-3.00
2019-01-19T19:29:33.384Z,-3.00
2019-01-19T19:32:23.144Z,-3.00
2019-01-19T19:35:09.700Z,-3.10
2019-01-19T19:38:03.749Z,-3.20
2019-01-19T19:40:50.187Z,-3.20
2019-01-19T19:43:33.705Z,-3.30
2019-01-19T19:46:08.118Z,-3.30
2019-01-19T19:48:45.616Z,-3.40
2019-01-19T19:51:20.041Z,-3.50
2019-01-19T19:53:48.473Z,-3.40
2019-01-19T19:56:15.842Z,-3.40
2019-01-19T19:58:45.249Z,-3.50
2019-01-19T20:01:13.656Z,-3.50
2019-01-19T20:03:42.097Z,-3.60
2019-01-19T20:06:10.519Z,-3.70
2019-01-19T20:08:38.960Z,-3.80
2019-01-19T20:11:07.374Z,-3.80
2019-01-19T20:13:35.804Z,-3.80
2019-01-19T20:16:04.448Z,-3.80
2019-01-19T20:18:32.910Z,-3.80
2019-01-19T20:21:01.317Z,-3.80
2019-01-19T20:23:29.865Z,-3.80
2019-01-19T20:25:58.294Z,-3.90
2019-01-19T20:28:26.796Z,-3.90
2019-01-19T20:30:55.215Z,-3.90
2019-01-19T20:33:23.662Z,-4.00
2019-01-19T20:35:52.068Z,-4.00
2019-01-19T20:38:20.500Z,-4.00
2019-01-19T20:40:48.912Z,-4.10
2019-01-19T20:43:17.349Z,-4.10
2019-01-19T20:45:45.752Z,-4.10
2019-01-19T20:48:14.245Z,-4.10
2019-01-19T20:50:42.657Z,-4.10
2019-01-19T20:53:11.112Z,-4.10
2019-01-19T20:55:39.521Z,-4.20
2019-01-19T20:58:07.960Z,-4.20
2019-01-19T21:00:36.378Z,-4.30
2019-01-19T21:03:04.870Z,-4.30
2019-01-19T21:05:33.309Z,-4.30
2019-01-19T21:08:01.734Z,-4.40
2019-01-19T21:10:31.882Z,-4.40
2019-01-19T21:13:00.305Z,-4.40
2019-01-19T21:15:28.722Z,-4.40
2019-01-19T21:17:57.163Z,-4.40
2019-01-19T21:20:25.572Z,-4.40
2019-01-19T21:22:54.011Z,-4.50
2019-01-19T21:25:22.428Z,-4.50
2019-01-19T21:27:50.867Z,-4.50
2019-01-19T21:30:19.412Z,-4.50
2019-01-19T21:32:47.842Z,-4.50
2019-01-19T21:35:16.248Z,-4.50
2019-01-19T21:37:44.672Z,-4.50
2019-01-19T21:40:14.326Z,-4.50
2019-01-19T21:42:42.758Z,-4.50
2019-01-19T21:45:16.962Z,-4.50
2019-01-19T21:47:45.384Z,-4.50
2019-01-19T21:50:13.936Z,-4.50
2019-01-19T21:52:42.362Z,-4.50
2019-01-19T21:55:10.937Z,-4.50
2019-01-19T21:57:39.351Z,-4.60
2019-01-19T22:00:16.690Z,-4.60
2019-01-19T22:02:45.146Z,-4.60
2019-01-19T22:05:13.951Z,-4.60
2019-01-19T22:07:42.384Z,-4.70
2019-01-19T22:10:16.410Z,-4.70
2019-01-19T22:12:44.850Z,-4.60
2019-01-19T22:15:16.680Z,-4.70
2019-01-19T22:17:45.101Z,-4.70
2019-01-19T22:20:15.659Z,-4.70
2019-01-19T22:22:44.088Z,-4.70
2019-01-19T22:25:12.747Z,-4.70
2019-01-19T22:27:42.965Z,-4.70
2019-01-19T22:30:17.075Z,-4.80
2019-01-19T22:32:46.179Z,-4.80
2019-01-19T22:35:14.584Z,-4.80
2019-01-19T22:37:43.008Z,-4.90
2019-01-19T22:40:16.973Z,-4.90
2019-01-19T22:42:45.944Z,-5.00
2019-01-19T22:45:16.190Z,-4.90
2019-01-19T22:47:44.992Z,-4.90
2019-01-19T22:50:18.170Z,-4.90
2019-01-19T22:52:46.671Z,-4.90
2019-01-19T22:55:15.244Z,-5.00
2019-01-19T22:57:43.741Z,-5.00
2019-01-19T23:00:21.240Z,-5.00
2019-01-19T23:02:49.712Z,-5.00
2019-01-19T23:05:18.214Z,-5.00
2019-01-19T23:07:46.655Z,-5.00
2019-01-19T23:10:15.159Z,-5.10
2019-01-19T23:12:43.596Z,-5.10
2019-01-19T23:15:12.745Z,-5.10
2019-01-19T23:17:41.157Z,-5.20
2019-01-19T23:20:11.125Z,-5.20
2019-01-19T23:22:39.613Z,-5.20
2019-01-19T23:25:08.485Z,-5.20
2019-01-19T23:27:36.893Z,-5.20
2019-01-19T23:30:08.403Z,-5.20
2019-01-19T23:32:36.851Z,-5.30
2019-01-19T23:35:08.066Z,-5.30
2019-01-19T23:37:36.483Z,-5.30
2019-01-19T23:40:08.027Z,-5.30
2019-01-19T23:42:36.456Z,-5.40
2019-01-19T23:45:08.036Z,-5.40
2019-01-19T23:47:36.474Z,-5.40
2019-01-19T23:50:07.340Z,-5.50
2019-01-19T23:52:35.749Z,-5.50
2019-01-19T23:55:07.137Z,-5.50
2019-01-19T23:57:35.545Z,-5.60
